sensor_id;sensor_type;location;lat;lon;timestamp;P1;durP1;ratioP1;P2;durP2;ratioP2
18789;SDS011;9523;42.650;23.386;2023-11-22T00:01:04;30.63;;;17.77;;
18789;SDS011;9523;42.650;23.386;2023-11-22T00:03:32;32.27;;;18.43;;
18789;SDS011;9523;42.650;23.386;2023-11-22T00:05:59;30.97;;;18.10;;
18789;SDS011;9523;42.650;23.386;2023-11-22T00:08:26;30.23;;;18.77;;
18789;SDS011;9523;42.650;23.386;2023-11-22T00:10:54;25.80;;;16.20;;
18789;SDS011;9523;42.650;23.386;2023-11-22T00:13:21;31.47;;;17.87;;
18789;SDS011;9523;42.650;23.386;2023-11-22T00:15:47;28.87;;;18.70;;
18789;SDS011;9523;42.650;23.386;2023-11-22T00:18:15;27.17;;;17.37;;
18789;SDS011;9523;42.650;23.386;2023-11-22T00:20:43;29.93;;;18.30;;
18789;SDS011;9523;42.650;23.386;2023-11-22T00:23:09;28.07;;;18.57;;
18789;SDS011;9523;42.650;23.386;2023-11-22T00:25:36;30.17;;;18.17;;
18789;SDS011;9523;42.650;23.386;2023-11-22T00:28:02;29.07;;;18.03;;
18789;SDS011;9523;42.650;23.386;2023-11-22T00:30:31;32.23;;;18.30;;
18789;SDS011;9523;42.650;23.386;2023-11-22T00:32:57;34.73;;;18.47;;
18789;SDS011;9523;42.650;23.386;2023-11-22T00:35:24;28.97;;;18.80;;
18789;SDS011;9523;42.650;23.386;2023-11-22T00:37:52;30.23;;;17.97;;
18789;SDS011;9523;42.650;23.386;2023-11-22T00:40:19;27.10;;;16.83;;
18789;SDS011;9523;42.650;23.386;2023-11-22T00:42:48;31.30;;;18.63;;
18789;SDS011;9523;42.650;23.386;2023-11-22T00:45:15;34.20;;;19.23;;
18789;SDS011;9523;42.650;23.386;2023-11-22T00:47:43;30.00;;;17.47;;
18789;SDS011;9523;42.650;23.386;2023-11-22T00:50:12;31.07;;;17.47;;
18789;SDS011;9523;42.650;23.386;2023-11-22T00:52:39;31.27;;;17.33;;
18789;SDS011;9523;42.650;23.386;2023-11-22T00:55:11;28.70;;;17.53;;
18789;SDS011;9523;42.650;23.386;2023-11-22T00:57:37;28.53;;;17.47;;
18789;SDS011;9523;42.650;23.386;2023-11-22T01:00:05;29.23;;;16.63;;
18789;SDS011;9523;42.650;23.386;2023-11-22T01:02:32;28.23;;;16.90;;
18789;SDS011;9523;42.650;23.386;2023-11-22T01:04:59;28.17;;;17.00;;
18789;SDS011;9523;42.650;23.386;2023-11-22T01:07:27;31.67;;;16.50;;
18789;SDS011;9523;42.650;23.386;2023-11-22T01:09:54;28.57;;;16.80;;
18789;SDS011;9523;42.650;23.386;2023-11-22T01:12:22;28.10;;;15.90;;
18789;SDS011;9523;42.650;23.386;2023-11-22T01:14:49;28.10;;;17.07;;
18789;SDS011;9523;42.650;23.386;2023-11-22T01:17:15;25.73;;;15.43;;
18789;SDS011;9523;42.650;23.386;2023-11-22T01:19:42;25.23;;;15.73;;
18789;SDS011;9523;42.650;23.386;2023-11-22T01:22:09;23.60;;;14.83;;
18789;SDS011;9523;42.650;23.386;2023-11-22T01:24:35;24.27;;;15.90;;
18789;SDS011;9523;42.650;23.386;2023-11-22T01:27:02;25.00;;;15.27;;
18789;SDS011;9523;42.650;23.386;2023-11-22T01:29:30;26.83;;;15.23;;
18789;SDS011;9523;42.650;23.386;2023-11-22T01:31:57;22.73;;;15.20;;
18789;SDS011;9523;42.650;23.386;2023-11-22T01:34:24;28.03;;;15.20;;
18789;SDS011;9523;42.650;23.386;2023-11-22T01:36:51;26.77;;;15.97;;
18789;SDS011;9523;42.650;23.386;2023-11-22T01:39:17;26.97;;;15.53;;
18789;SDS011;9523;42.650;23.386;2023-11-22T01:41:44;27.90;;;16.43;;
18789;SDS011;9523;42.650;23.386;2023-11-22T01:44:11;24.50;;;15.13;;
18789;SDS011;9523;42.650;23.386;2023-11-22T01:46:39;27.53;;;15.57;;
18789;SDS011;9523;42.650;23.386;2023-11-22T01:49:05;29.63;;;16.17;;
18789;SDS011;9523;42.650;23.386;2023-11-22T01:51:32;24.83;;;16.13;;
18789;SDS011;9523;42.650;23.386;2023-11-22T01:53:59;23.17;;;14.93;;
18789;SDS011;9523;42.650;23.386;2023-11-22T01:56:26;23.23;;;15.77;;
18789;SDS011;9523;42.650;23.386;2023-11-22T01:58:54;24.77;;;14.77;;
18789;SDS011;9523;42.650;23.386;2023-11-22T02:01:21;25.77;;;15.43;;
18789;SDS011;9523;42.650;23.386;2023-11-22T02:03:49;26.10;;;15.43;;
18789;SDS011;9523;42.650;23.386;2023-11-22T02:06:17;24.87;;;14.93;;
18789;SDS011;9523;42.650;23.386;2023-11-22T02:08:44;26.37;;;15.47;;
18789;SDS011;9523;42.650;23.386;2023-11-22T02:11:11;24.93;;;15.50;;
18789;SDS011;9523;42.650;23.386;2023-11-22T02:13:37;24.60;;;14.70;;
18789;SDS011;9523;42.650;23.386;2023-11-22T02:16:04;24.13;;;15.83;;
18789;SDS011;9523;42.650;23.386;2023-11-22T02:18:31;26.53;;;15.40;;
18789;SDS011;9523;42.650;23.386;2023-11-22T02:20:59;26.20;;;14.30;;
18789;SDS011;9523;42.650;23.386;2023-11-22T02:23:29;26.57;;;16.17;;
18789;SDS011;9523;42.650;23.386;2023-11-22T02:25:56;29.60;;;16.60;;
18789;SDS011;9523;42.650;23.386;2023-11-22T02:28:23;23.03;;;14.73;;
18789;SDS011;9523;42.650;23.386;2023-11-22T02:30:50;21.77;;;15.27;;
18789;SDS011;9523;42.650;23.386;2023-11-22T02:33:17;24.50;;;14.77;;
18789;SDS011;9523;42.650;23.386;2023-11-22T02:35:44;23.57;;;14.50;;
18789;SDS011;9523;42.650;23.386;2023-11-22T02:38:11;23.40;;;14.37;;
18789;SDS011;9523;42.650;23.386;2023-11-22T02:40:39;27.30;;;14.93;;
18789;SDS011;9523;42.650;23.386;2023-11-22T02:43:05;24.63;;;14.83;;
18789;SDS011;9523;42.650;23.386;2023-11-22T02:45:34;24.80;;;15.63;;
18789;SDS011;9523;42.650;23.386;2023-11-22T02:48:01;26.00;;;15.57;;
18789;SDS011;9523;42.650;23.386;2023-11-22T02:50:28;23.03;;;14.97;;
18789;SDS011;9523;42.650;23.386;2023-11-22T02:52:57;24.87;;;14.77;;
18789;SDS011;9523;42.650;23.386;2023-11-22T02:55:23;23.43;;;14.77;;
18789;SDS011;9523;42.650;23.386;2023-11-22T02:57:51;26.17;;;15.37;;
18789;SDS011;9523;42.650;23.386;2023-11-22T03:00:18;24.67;;;16.07;;
18789;SDS011;9523;42.650;23.386;2023-11-22T03:02:45;21.60;;;13.90;;
18789;SDS011;9523;42.650;23.386;2023-11-22T03:05:11;25.60;;;15.30;;
18789;SDS011;9523;42.650;23.386;2023-11-22T03:07:39;23.93;;;15.13;;
18789;SDS011;9523;42.650;23.386;2023-11-22T03:10:06;24.67;;;14.90;;
18789;SDS011;9523;42.650;23.386;2023-11-22T03:12:33;23.60;;;15.37;;
18789;SDS011;9523;42.650;23.386;2023-11-22T03:15:01;24.13;;;14.87;;
18789;SDS011;9523;42.650;23.386;2023-11-22T03:17:28;24.57;;;14.73;;
18789;SDS011;9523;42.650;23.386;2023-11-22T03:19:54;23.77;;;15.73;;
18789;SDS011;9523;42.650;23.386;2023-11-22T03:22:22;25.43;;;15.50;;
18789;SDS011;9523;42.650;23.386;2023-11-22T03:24:50;24.53;;;14.13;;
18789;SDS011;9523;42.650;23.386;2023-11-22T03:27:17;26.60;;;14.97;;
18789;SDS011;9523;42.650;23.386;2023-11-22T03:29:46;23.70;;;14.53;;
18789;SDS011;9523;42.650;23.386;2023-11-22T03:32:14;22.83;;;14.37;;
18789;SDS011;9523;42.650;23.386;2023-11-22T03:34:40;23.73;;;13.53;;
18789;SDS011;9523;42.650;23.386;2023-11-22T03:37:07;24.17;;;14.03;;
18789;SDS011;9523;42.650;23.386;2023-11-22T03:39:34;22.97;;;15.20;;
18789;SDS011;9523;42.650;23.386;2023-11-22T03:42:00;21.10;;;13.70;;
18789;SDS011;9523;42.650;23.386;2023-11-22T03:44:27;21.20;;;13.50;;
18789;SDS011;9523;42.650;23.386;2023-11-22T03:46:55;23.20;;;14.00;;
18789;SDS011;9523;42.650;23.386;2023-11-22T03:49:23;19.23;;;12.73;;
18789;SDS011;9523;42.650;23.386;2023-11-22T03:51:49;19.17;;;13.07;;
18789;SDS011;9523;42.650;23.386;2023-11-22T03:54:16;23.27;;;13.97;;
18789;SDS011;9523;42.650;23.386;2023-11-22T03:56:43;22.53;;;14.00;;
18789;SDS011;9523;42.650;23.386;2023-11-22T03:59:10;26.60;;;13.63;;
18789;SDS011;9523;42.650;23.386;2023-11-22T04:01:37;24.17;;;14.30;;
18789;SDS011;9523;42.650;23.386;2023-11-22T04:04:03;21.50;;;13.63;;
18789;SDS011;9523;42.650;23.386;2023-11-22T04:06:31;23.33;;;14.57;;
18789;SDS011;9523;42.650;23.386;2023-11-22T04:08:58;19.73;;;13.47;;
18789;SDS011;9523;42.650;23.386;2023-11-22T04:11:25;23.57;;;13.80;;
18789;SDS011;9523;42.650;23.386;2023-11-22T04:13:53;26.10;;;14.70;;
18789;SDS011;9523;42.650;23.386;2023-11-22T04:16:20;19.73;;;13.03;;
18789;SDS011;9523;42.650;23.386;2023-11-22T04:18:46;18.57;;;13.23;;
18789;SDS011;9523;42.650;23.386;2023-11-22T04:21:13;23.00;;;14.57;;
18789;SDS011;9523;42.650;23.386;2023-11-22T04:23:41;23.47;;;13.77;;
18789;SDS011;9523;42.650;23.386;2023-11-22T04:26:08;20.97;;;13.33;;
18789;SDS011;9523;42.650;23.386;2023-11-22T04:28:35;18.63;;;13.03;;
18789;SDS011;9523;42.650;23.386;2023-11-22T04:31:02;21.67;;;13.47;;
18789;SDS011;9523;42.650;23.386;2023-11-22T04:33:29;24.47;;;14.00;;
18789;SDS011;9523;42.650;23.386;2023-11-22T04:35:56;21.40;;;13.97;;
18789;SDS011;9523;42.650;23.386;2023-11-22T04:38:23;23.07;;;14.33;;
18789;SDS011;9523;42.650;23.386;2023-11-22T04:40:51;22.27;;;13.63;;
18789;SDS011;9523;42.650;23.386;2023-11-22T04:43:18;23.87;;;14.50;;
18789;SDS011;9523;42.650;23.386;2023-11-22T04:45:45;19.80;;;12.80;;
18789;SDS011;9523;42.650;23.386;2023-11-22T04:48:11;22.80;;;13.73;;
18789;SDS011;9523;42.650;23.386;2023-11-22T04:50:40;18.33;;;13.30;;
18789;SDS011;9523;42.650;23.386;2023-11-22T04:53:06;24.07;;;14.27;;
18789;SDS011;9523;42.650;23.386;2023-11-22T04:55:33;18.00;;;13.20;;
18789;SDS011;9523;42.650;23.386;2023-11-22T04:58:01;24.70;;;14.07;;
18789;SDS011;9523;42.650;23.386;2023-11-22T05:00:28;20.93;;;14.00;;
18789;SDS011;9523;42.650;23.386;2023-11-22T05:02:54;19.23;;;13.70;;
18789;SDS011;9523;42.650;23.386;2023-11-22T05:05:21;21.87;;;14.07;;
18789;SDS011;9523;42.650;23.386;2023-11-22T05:07:48;23.00;;;13.93;;
18789;SDS011;9523;42.650;23.386;2023-11-22T05:10:14;22.13;;;13.87;;
18789;SDS011;9523;42.650;23.386;2023-11-22T05:12:42;23.73;;;14.53;;
18789;SDS011;9523;42.650;23.386;2023-11-22T05:15:10;21.70;;;14.30;;
18789;SDS011;9523;42.650;23.386;2023-11-22T05:17:39;22.97;;;14.50;;
18789;SDS011;9523;42.650;23.386;2023-11-22T05:20:06;25.83;;;15.30;;
18789;SDS011;9523;42.650;23.386;2023-11-22T05:22:34;22.40;;;14.70;;
18789;SDS011;9523;42.650;23.386;2023-11-22T05:25:01;22.57;;;14.90;;
18789;SDS011;9523;42.650;23.386;2023-11-22T05:27:27;23.03;;;14.87;;
18789;SDS011;9523;42.650;23.386;2023-11-22T05:29:55;25.37;;;15.23;;
18789;SDS011;9523;42.650;23.386;2023-11-22T05:32:23;22.80;;;15.50;;
18789;SDS011;9523;42.650;23.386;2023-11-22T05:34:50;24.10;;;15.10;;
18789;SDS011;9523;42.650;23.386;2023-11-22T05:37:17;25.00;;;15.17;;
18789;SDS011;9523;42.650;23.386;2023-11-22T05:39:43;22.73;;;15.23;;
18789;SDS011;9523;42.650;23.386;2023-11-22T05:42:10;25.50;;;16.33;;
18789;SDS011;9523;42.650;23.386;2023-11-22T05:44:37;28.03;;;15.40;;
18789;SDS011;9523;42.650;23.386;2023-11-22T05:47:03;26.93;;;16.33;;
18789;SDS011;9523;42.650;23.386;2023-11-22T05:49:32;23.73;;;15.50;;
18789;SDS011;9523;42.650;23.386;2023-11-22T05:51:58;21.57;;;14.70;;
18789;SDS011;9523;42.650;23.386;2023-11-22T05:54:25;23.47;;;14.77;;
18789;SDS011;9523;42.650;23.386;2023-11-22T05:56:51;21.67;;;14.50;;
18789;SDS011;9523;42.650;23.386;2023-11-22T05:59:19;25.40;;;15.10;;
18789;SDS011;9523;42.650;23.386;2023-11-22T06:01:46;24.83;;;15.10;;
18789;SDS011;9523;42.650;23.386;2023-11-22T06:04:12;20.27;;;13.63;;
18789;SDS011;9523;42.650;23.386;2023-11-22T06:06:40;26.67;;;14.93;;
18789;SDS011;9523;42.650;23.386;2023-11-22T06:09:07;21.23;;;14.37;;
18789;SDS011;9523;42.650;23.386;2023-11-22T06:11:37;23.67;;;15.83;;
18789;SDS011;9523;42.650;23.386;2023-11-22T06:14:04;23.13;;;14.60;;
18789;SDS011;9523;42.650;23.386;2023-11-22T06:16:31;21.70;;;15.30;;
18789;SDS011;9523;42.650;23.386;2023-11-22T06:18:58;24.60;;;15.00;;
18789;SDS011;9523;42.650;23.386;2023-11-22T06:21:24;25.23;;;15.70;;
18789;SDS011;9523;42.650;23.386;2023-11-22T06:23:53;27.47;;;15.03;;
18789;SDS011;9523;42.650;23.386;2023-11-22T06:26:21;22.60;;;15.57;;
18789;SDS011;9523;42.650;23.386;2023-11-22T06:28:48;21.80;;;15.17;;
18789;SDS011;9523;42.650;23.386;2023-11-22T06:31:14;27.63;;;15.57;;
18789;SDS011;9523;42.650;23.386;2023-11-22T06:33:41;24.97;;;15.23;;
18789;SDS011;9523;42.650;23.386;2023-11-22T06:36:08;29.77;;;15.33;;
18789;SDS011;9523;42.650;23.386;2023-11-22T06:38:36;26.33;;;14.77;;
18789;SDS011;9523;42.650;23.386;2023-11-22T06:41:04;23.90;;;16.20;;
18789;SDS011;9523;42.650;23.386;2023-11-22T06:43:31;20.67;;;13.87;;
18789;SDS011;9523;42.650;23.386;2023-11-22T06:45:58;22.13;;;14.40;;
18789;SDS011;9523;42.650;23.386;2023-11-22T06:48:24;21.87;;;14.77;;
18789;SDS011;9523;42.650;23.386;2023-11-22T06:50:53;25.47;;;14.77;;
18789;SDS011;9523;42.650;23.386;2023-11-22T06:53:19;27.50;;;15.50;;
18789;SDS011;9523;42.650;23.386;2023-11-22T06:55:46;20.23;;;13.93;;
18789;SDS011;9523;42.650;23.386;2023-11-22T06:58:14;23.77;;;14.87;;
18789;SDS011;9523;42.650;23.386;2023-11-22T07:00:43;23.33;;;14.70;;
18789;SDS011;9523;42.650;23.386;2023-11-22T07:03:09;30.90;;;15.50;;
18789;SDS011;9523;42.650;23.386;2023-11-22T07:05:37;24.60;;;15.63;;
18789;SDS011;9523;42.650;23.386;2023-11-22T07:08:04;23.33;;;15.13;;
18789;SDS011;9523;42.650;23.386;2023-11-22T07:10:30;22.53;;;15.87;;
18789;SDS011;9523;42.650;23.386;2023-11-22T07:12:59;24.63;;;14.60;;
18789;SDS011;9523;42.650;23.386;2023-11-22T07:15:28;23.13;;;15.03;;
18789;SDS011;9523;42.650;23.386;2023-11-22T07:17:55;20.70;;;14.97;;
18789;SDS011;9523;42.650;23.386;2023-11-22T07:20:22;22.43;;;14.83;;
18789;SDS011;9523;42.650;23.386;2023-11-22T07:22:49;25.83;;;15.00;;
18789;SDS011;9523;42.650;23.386;2023-11-22T07:25:20;24.03;;;15.33;;
18789;SDS011;9523;42.650;23.386;2023-11-22T07:27:50;26.77;;;14.47;;
18789;SDS011;9523;42.650;23.386;2023-11-22T07:30:17;22.80;;;14.43;;
18789;SDS011;9523;42.650;23.386;2023-11-22T07:32:46;20.17;;;13.90;;
18789;SDS011;9523;42.650;23.386;2023-11-22T07:35:13;20.43;;;13.80;;
18789;SDS011;9523;42.650;23.386;2023-11-22T07:37:40;20.87;;;14.13;;
18789;SDS011;9523;42.650;23.386;2023-11-22T07:40:08;19.87;;;13.07;;
18789;SDS011;9523;42.650;23.386;2023-11-22T07:42:35;19.33;;;13.30;;
18789;SDS011;9523;42.650;23.386;2023-11-22T07:45:01;20.17;;;13.50;;
18789;SDS011;9523;42.650;23.386;2023-11-22T07:47:28;20.63;;;13.27;;
18789;SDS011;9523;42.650;23.386;2023-11-22T07:49:56;20.07;;;13.27;;
18789;SDS011;9523;42.650;23.386;2023-11-22T07:52:22;19.87;;;13.50;;
18789;SDS011;9523;42.650;23.386;2023-11-22T07:54:54;24.13;;;13.23;;
18789;SDS011;9523;42.650;23.386;2023-11-22T07:57:21;21.30;;;13.90;;
18789;SDS011;9523;42.650;23.386;2023-11-22T07:59:48;23.27;;;14.00;;
18789;SDS011;9523;42.650;23.386;2023-11-22T08:02:14;20.43;;;13.27;;
18789;SDS011;9523;42.650;23.386;2023-11-22T08:04:43;19.33;;;13.10;;
18789;SDS011;9523;42.650;23.386;2023-11-22T08:07:11;21.13;;;13.07;;
18789;SDS011;9523;42.650;23.386;2023-11-22T08:09:40;23.63;;;13.50;;
18789;SDS011;9523;42.650;23.386;2023-11-22T08:12:06;20.57;;;13.57;;
18789;SDS011;9523;42.650;23.386;2023-11-22T08:14:33;21.73;;;13.90;;
18789;SDS011;9523;42.650;23.386;2023-11-22T08:17:00;21.73;;;14.13;;
18789;SDS011;9523;42.650;23.386;2023-11-22T08:19:26;22.27;;;13.90;;
18789;SDS011;9523;42.650;23.386;2023-11-22T08:21:53;24.53;;;14.57;;
18789;SDS011;9523;42.650;23.386;2023-11-22T08:24:21;22.83;;;15.27;;
18789;SDS011;9523;42.650;23.386;2023-11-22T08:26:48;22.57;;;15.23;;
18789;SDS011;9523;42.650;23.386;2023-11-22T08:29:15;22.13;;;15.00;;
18789;SDS011;9523;42.650;23.386;2023-11-22T08:31:41;25.00;;;15.03;;
18789;SDS011;9523;42.650;23.386;2023-11-22T08:34:08;27.27;;;16.00;;
18789;SDS011;9523;42.650;23.386;2023-11-22T08:36:36;23.63;;;14.60;;
18789;SDS011;9523;42.650;23.386;2023-11-22T08:39:03;19.60;;;14.43;;
18789;SDS011;9523;42.650;23.386;2023-11-22T08:41:32;23.13;;;15.00;;
18789;SDS011;9523;42.650;23.386;2023-11-22T08:44:02;23.30;;;14.37;;
18789;SDS011;9523;42.650;23.386;2023-11-22T08:46:32;22.90;;;14.60;;
18789;SDS011;9523;42.650;23.386;2023-11-22T08:49:09;21.53;;;14.43;;
18789;SDS011;9523;42.650;23.386;2023-11-22T08:51:36;21.90;;;14.80;;
18789;SDS011;9523;42.650;23.386;2023-11-22T08:54:03;27.63;;;15.77;;
18789;SDS011;9523;42.650;23.386;2023-11-22T08:56:29;23.33;;;14.50;;
18789;SDS011;9523;42.650;23.386;2023-11-22T08:58:57;22.97;;;14.93;;
18789;SDS011;9523;42.650;23.386;2023-11-22T09:01:24;27.97;;;14.70;;
18789;SDS011;9523;42.650;23.386;2023-11-22T09:03:51;19.70;;;13.70;;
18789;SDS011;9523;42.650;23.386;2023-11-22T09:06:17;23.73;;;15.20;;
18789;SDS011;9523;42.650;23.386;2023-11-22T09:08:44;24.83;;;15.67;;
18789;SDS011;9523;42.650;23.386;2023-11-22T09:11:11;23.63;;;15.87;;
18789;SDS011;9523;42.650;23.386;2023-11-22T09:13:38;21.10;;;14.53;;
18789;SDS011;9523;42.650;23.386;2023-11-22T09:16:07;25.03;;;16.03;;
18789;SDS011;9523;42.650;23.386;2023-11-22T09:18:33;30.17;;;17.90;;
18789;SDS011;9523;42.650;23.386;2023-11-22T09:21:00;35.03;;;22.33;;
18789;SDS011;9523;42.650;23.386;2023-11-22T09:23:27;35.17;;;23.43;;
18789;SDS011;9523;42.650;23.386;2023-11-22T09:25:55;37.40;;;22.33;;
18789;SDS011;9523;42.650;23.386;2023-11-22T09:28:21;31.50;;;21.50;;
18789;SDS011;9523;42.650;23.386;2023-11-22T09:30:48;35.07;;;22.20;;
18789;SDS011;9523;42.650;23.386;2023-11-22T09:33:16;31.70;;;18.87;;
18789;SDS011;9523;42.650;23.386;2023-11-22T09:35:47;24.00;;;15.57;;
18789;SDS011;9523;42.650;23.386;2023-11-22T09:38:14;28.43;;;16.53;;
18789;SDS011;9523;42.650;23.386;2023-11-22T09:40:44;28.00;;;17.10;;
18789;SDS011;9523;42.650;23.386;2023-11-22T09:43:11;23.73;;;16.30;;
18789;SDS011;9523;42.650;23.386;2023-11-22T09:45:40;28.37;;;16.57;;
18789;SDS011;9523;42.650;23.386;2023-11-22T09:48:07;26.40;;;17.03;;
18789;SDS011;9523;42.650;23.386;2023-11-22T09:50:39;25.00;;;17.37;;
18789;SDS011;9523;42.650;23.386;2023-11-22T09:53:08;26.03;;;16.97;;
18789;SDS011;9523;42.650;23.386;2023-11-22T09:55:37;27.97;;;19.00;;
18789;SDS011;9523;42.650;23.386;2023-11-22T09:58:03;35.40;;;22.03;;
18789;SDS011;9523;42.650;23.386;2023-11-22T10:00:30;34.37;;;22.93;;
18789;SDS011;9523;42.650;23.386;2023-11-22T10:02:57;33.60;;;23.10;;
18789;SDS011;9523;42.650;23.386;2023-11-22T10:05:24;37.67;;;23.37;;
18789;SDS011;9523;42.650;23.386;2023-11-22T10:07:55;33.50;;;22.80;;
18789;SDS011;9523;42.650;23.386;2023-11-22T10:10:21;32.77;;;21.43;;
18789;SDS011;9523;42.650;23.386;2023-11-22T10:12:52;36.27;;;21.97;;
18789;SDS011;9523;42.650;23.386;2023-11-22T10:15:21;30.97;;;21.07;;
18789;SDS011;9523;42.650;23.386;2023-11-22T10:17:53;34.70;;;21.50;;
18789;SDS011;9523;42.650;23.386;2023-11-22T10:20:21;32.00;;;21.73;;
18789;SDS011;9523;42.650;23.386;2023-11-22T10:22:48;34.10;;;21.37;;
18789;SDS011;9523;42.650;23.386;2023-11-22T10:25:16;30.03;;;21.33;;
18789;SDS011;9523;42.650;23.386;2023-11-22T10:27:44;29.83;;;20.57;;
18789;SDS011;9523;42.650;23.386;2023-11-22T10:30:11;28.73;;;20.20;;
18789;SDS011;9523;42.650;23.386;2023-11-22T10:32:38;28.63;;;20.03;;
18789;SDS011;9523;42.650;23.386;2023-11-22T10:35:06;27.30;;;20.17;;
18789;SDS011;9523;42.650;23.386;2023-11-22T10:37:34;30.17;;;20.77;;
18789;SDS011;9523;42.650;23.386;2023-11-22T10:40:01;32.10;;;19.73;;
18789;SDS011;9523;42.650;23.386;2023-11-22T10:42:33;30.03;;;19.47;;
18789;SDS011;9523;42.650;23.386;2023-11-22T10:45:02;28.57;;;20.87;;
18789;SDS011;9523;42.650;23.386;2023-11-22T10:47:32;30.13;;;21.20;;
18789;SDS011;9523;42.650;23.386;2023-11-22T10:50:03;32.03;;;21.73;;
18789;SDS011;9523;42.650;23.386;2023-11-22T10:52:29;30.27;;;21.50;;
18789;SDS011;9523;42.650;23.386;2023-11-22T10:54:59;31.20;;;20.17;;
18789;SDS011;9523;42.650;23.386;2023-11-22T10:57:28;29.23;;;20.93;;
18789;SDS011;9523;42.650;23.386;2023-11-22T10:59:59;31.93;;;21.43;;
18789;SDS011;9523;42.650;23.386;2023-11-22T11:02:28;30.67;;;20.67;;
18789;SDS011;9523;42.650;23.386;2023-11-22T11:04:57;32.20;;;20.57;;
18789;SDS011;9523;42.650;23.386;2023-11-22T11:07:25;34.03;;;21.80;;
18789;SDS011;9523;42.650;23.386;2023-11-22T11:09:54;32.77;;;20.50;;
18789;SDS011;9523;42.650;23.386;2023-11-22T11:12:22;31.87;;;21.60;;
18789;SDS011;9523;42.650;23.386;2023-11-22T11:14:49;35.30;;;21.60;;
18789;SDS011;9523;42.650;23.386;2023-11-22T11:17:17;32.13;;;20.17;;
18789;SDS011;9523;42.650;23.386;2023-11-22T11:19:44;30.93;;;19.90;;
18789;SDS011;9523;42.650;23.386;2023-11-22T11:22:11;28.40;;;20.47;;
18789;SDS011;9523;42.650;23.386;2023-11-22T11:24:38;31.13;;;19.47;;
18789;SDS011;9523;42.650;23.386;2023-11-22T11:27:06;30.53;;;20.87;;
18789;SDS011;9523;42.650;23.386;2023-11-22T11:29:33;36.87;;;20.83;;
18789;SDS011;9523;42.650;23.386;2023-11-22T11:32:02;31.90;;;20.90;;
18789;SDS011;9523;42.650;23.386;2023-11-22T11:34:30;33.80;;;20.57;;
18789;SDS011;9523;42.650;23.386;2023-11-22T11:36:56;33.87;;;20.03;;
18789;SDS011;9523;42.650;23.386;2023-11-22T11:39:25;30.33;;;20.00;;
18789;SDS011;9523;42.650;23.386;2023-11-22T11:42:07;30.10;;;18.93;;
18789;SDS011;9523;42.650;23.386;2023-11-22T11:44:34;27.77;;;20.30;;
18789;SDS011;9523;42.650;23.386;2023-11-22T11:47:08;29.10;;;19.80;;
18789;SDS011;9523;42.650;23.386;2023-11-22T11:49:37;28.33;;;19.97;;
18789;SDS011;9523;42.650;23.386;2023-11-22T11:52:05;31.33;;;18.77;;
18789;SDS011;9523;42.650;23.386;2023-11-22T11:54:34;29.50;;;19.73;;
18789;SDS011;9523;42.650;23.386;2023-11-22T11:57:01;25.73;;;19.20;;
18789;SDS011;9523;42.650;23.386;2023-11-22T11:59:30;33.00;;;20.20;;
18789;SDS011;9523;42.650;23.386;2023-11-22T12:01:59;27.87;;;18.90;;
18789;SDS011;9523;42.650;23.386;2023-11-22T12:04:25;28.93;;;19.80;;
18789;SDS011;9523;42.650;23.386;2023-11-22T12:06:57;31.47;;;20.27;;
18789;SDS011;9523;42.650;23.386;2023-11-22T12:09:23;35.23;;;21.00;;
18789;SDS011;9523;42.650;23.386;2023-11-22T12:11:54;29.30;;;18.50;;
18789;SDS011;9523;42.650;23.386;2023-11-22T12:14:20;30.73;;;19.50;;
18789;SDS011;9523;42.650;23.386;2023-11-22T12:16:47;29.97;;;21.20;;
18789;SDS011;9523;42.650;23.386;2023-11-22T12:19:20;26.17;;;18.60;;
18789;SDS011;9523;42.650;23.386;2023-11-22T12:21:47;27.53;;;16.50;;
18789;SDS011;9523;42.650;23.386;2023-11-22T12:24:15;22.60;;;14.77;;
18789;SDS011;9523;42.650;23.386;2023-11-22T12:26:44;22.30;;;15.67;;
18789;SDS011;9523;42.650;23.386;2023-11-22T12:29:11;23.13;;;15.50;;
18789;SDS011;9523;42.650;23.386;2023-11-22T12:31:43;23.60;;;16.40;;
18789;SDS011;9523;42.650;23.386;2023-11-22T12:34:11;28.67;;;17.77;;
18789;SDS011;9523;42.650;23.386;2023-11-22T12:36:38;24.30;;;16.57;;
18789;SDS011;9523;42.650;23.386;2023-11-22T12:39:06;26.00;;;16.30;;
18789;SDS011;9523;42.650;23.386;2023-11-22T12:41:35;20.83;;;15.60;;
18789;SDS011;9523;42.650;23.386;2023-11-22T12:44:03;23.93;;;16.43;;
18789;SDS011;9523;42.650;23.386;2023-11-22T12:46:45;24.33;;;16.17;;
18789;SDS011;9523;42.650;23.386;2023-11-22T12:49:14;29.50;;;17.93;;
18789;SDS011;9523;42.650;23.386;2023-11-22T12:51:50;22.63;;;16.90;;
18789;SDS011;9523;42.650;23.386;2023-11-22T12:54:17;25.07;;;17.70;;
18789;SDS011;9523;42.650;23.386;2023-11-22T12:56:48;25.33;;;16.93;;
18789;SDS011;9523;42.650;23.386;2023-11-22T12:59:19;32.30;;;19.10;;
18789;SDS011;9523;42.650;23.386;2023-11-22T13:01:46;24.87;;;17.30;;
18789;SDS011;9523;42.650;23.386;2023-11-22T13:04:13;25.43;;;18.10;;
18789;SDS011;9523;42.650;23.386;2023-11-22T13:06:40;28.73;;;19.03;;
18789;SDS011;9523;42.650;23.386;2023-11-22T13:09:06;32.43;;;20.23;;
18789;SDS011;9523;42.650;23.386;2023-11-22T13:11:39;31.00;;;20.60;;
18789;SDS011;9523;42.650;23.386;2023-11-22T13:14:07;29.53;;;19.47;;
18789;SDS011;9523;42.650;23.386;2023-11-22T13:16:34;30.70;;;18.83;;
18789;SDS011;9523;42.650;23.386;2023-11-22T13:19:04;26.87;;;18.30;;
18789;SDS011;9523;42.650;23.386;2023-11-22T13:21:30;27.37;;;18.43;;
18789;SDS011;9523;42.650;23.386;2023-11-22T13:23:57;26.00;;;17.00;;
18789;SDS011;9523;42.650;23.386;2023-11-22T13:26:24;21.87;;;14.97;;
18789;SDS011;9523;42.650;23.386;2023-11-22T13:28:51;23.77;;;14.13;;
18789;SDS011;9523;42.650;23.386;2023-11-22T13:31:22;16.90;;;12.63;;
18789;SDS011;9523;42.650;23.386;2023-11-22T13:33:49;20.17;;;13.13;;
18789;SDS011;9523;42.650;23.386;2023-11-22T13:36:16;22.27;;;13.70;;
18789;SDS011;9523;42.650;23.386;2023-11-22T13:38:42;22.03;;;13.90;;
18789;SDS011;9523;42.650;23.386;2023-11-22T13:41:09;22.67;;;15.87;;
18789;SDS011;9523;42.650;23.386;2023-11-22T13:43:39;23.27;;;15.20;;
18789;SDS011;9523;42.650;23.386;2023-11-22T13:46:07;25.90;;;14.93;;
18789;SDS011;9523;42.650;23.386;2023-11-22T13:48:38;27.87;;;18.23;;
18789;SDS011;9523;42.650;23.386;2023-11-22T13:51:06;26.87;;;17.90;;
18789;SDS011;9523;42.650;23.386;2023-11-22T13:53:33;31.30;;;19.70;;
18789;SDS011;9523;42.650;23.386;2023-11-22T13:56:08;27.90;;;18.13;;
18789;SDS011;9523;42.650;23.386;2023-11-22T13:58:35;27.10;;;18.17;;
18789;SDS011;9523;42.650;23.386;2023-11-22T14:01:02;30.93;;;19.07;;
18789;SDS011;9523;42.650;23.386;2023-11-22T14:03:34;31.83;;;17.87;;
18789;SDS011;9523;42.650;23.386;2023-11-22T14:06:06;29.17;;;19.00;;
18789;SDS011;9523;42.650;23.386;2023-11-22T14:08:32;30.97;;;19.47;;
18789;SDS011;9523;42.650;23.386;2023-11-22T14:10:59;28.83;;;19.13;;
18789;SDS011;9523;42.650;23.386;2023-11-22T14:13:26;30.37;;;19.30;;
18789;SDS011;9523;42.650;23.386;2023-11-22T14:15:52;27.57;;;17.33;;
18789;SDS011;9523;42.650;23.386;2023-11-22T14:18:19;30.67;;;19.13;;
18789;SDS011;9523;42.650;23.386;2023-11-22T14:20:46;31.47;;;18.50;;
18789;SDS011;9523;42.650;23.386;2023-11-22T14:23:14;27.97;;;18.67;;